ASA1358 KSAN-KSEA
Flight info
| Callsign | ASA1358 |
|---|---|
| Flight time | 2h 12m |
| Altitude | 36000 |
| Route | ECHHO2 IKAYE TESEA SCTRR SNS RBL LMT BTG HAWKZ8 |
| Aircraft | B739/M-SDE2E3FGHIRWXY/LB1 |
Departure
| Time | 2026-04-21 00:29 |
|---|---|
| Airport | San Diego International Airport (KSAN) |
Arrival
| Time | 2026-04-21 02:41 |
|---|---|
| Airport | Seattle–Tacoma International Airport (KSEA) |
| Time | Latitude | Longitude | Altitude | Speed | Heading |
|---|---|---|---|---|---|
| 2026-04-21 00:01 | 32.73319 | -117.19561 | 19 ft | 0 kts | 226° |
| 2026-04-21 00:17 | 32.73320 | -117.19561 | 19 ft | 0 kts | 226° |
| 2026-04-21 00:17 | 32.73325 | -117.19554 | 20 ft | 2 kts | 226° |
| 2026-04-21 00:17 | 32.73336 | -117.19540 | 21 ft | 2 kts | 226° |
| 2026-04-21 00:18 | 32.73348 | -117.19525 | 24 ft | 3 kts | 226° |
| 2026-04-21 00:18 | 32.73349 | -117.19523 | 24 ft | 0 kts | 226° |
| 2026-04-21 00:20 | 32.73347 | -117.19523 | 24 ft | 1 kts | 198° |
| 2026-04-21 00:20 | 32.73343 | -117.19517 | 22 ft | 1 kts | 125° |
| 2026-04-21 00:20 | 32.73343 | -117.19516 | 22 ft | 0 kts | 115° |
| 2026-04-21 00:21 | 32.73331 | -117.19480 | 23 ft | 12 kts | 108° |
| 2026-04-21 00:21 | 32.73345 | -117.19366 | 21 ft | 19 kts | 80° |
| 2026-04-21 00:21 | 32.73318 | -117.19220 | 19 ft | 21 kts | 106° |
| 2026-04-21 00:22 | 32.73312 | -117.19194 | 20 ft | 0 kts | 106° |
| 2026-04-21 00:22 | 32.73307 | -117.19178 | 19 ft | 5 kts | 107° |
| 2026-04-21 00:23 | 32.73293 | -117.19121 | 21 ft | 9 kts | 107° |
| 2026-04-21 00:23 | 32.73287 | -117.19098 | 21 ft | 3 kts | 107° |
| 2026-04-21 00:23 | 32.73278 | -117.19063 | 22 ft | 6 kts | 107° |
| 2026-04-21 00:23 | 32.73261 | -117.18990 | 21 ft | 12 kts | 105° |
| 2026-04-21 00:24 | 32.73233 | -117.18871 | 22 ft | 18 kts | 105° |
| 2026-04-21 00:24 | 32.73219 | -117.18811 | 23 ft | 0 kts | 105° |
| 2026-04-21 00:24 | 32.73218 | -117.18807 | 23 ft | 2 kts | 105° |
| 2026-04-21 00:24 | 32.73206 | -117.18756 | 27 ft | 11 kts | 106° |
| 2026-04-21 00:25 | 32.73183 | -117.18663 | 22 ft | 12 kts | 106° |
| 2026-04-21 00:25 | 32.73162 | -117.18572 | 16 ft | 12 kts | 105° |
| 2026-04-21 00:25 | 32.73141 | -117.18482 | 17 ft | 11 kts | 107° |
| 2026-04-21 00:25 | 32.73118 | -117.18396 | 16 ft | 11 kts | 107° |
| 2026-04-21 00:26 | 32.73097 | -117.18314 | 16 ft | 10 kts | 107° |
| 2026-04-21 00:26 | 32.73078 | -117.18237 | 15 ft | 9 kts | 106° |
| 2026-04-21 00:26 | 32.73060 | -117.18163 | 14 ft | 10 kts | 106° |
| 2026-04-21 00:26 | 32.73062 | -117.18129 | 13 ft | 1 kts | 47° |
| 2026-04-21 00:27 | 32.73062 | -117.18128 | 13 ft | 0 kts | 46° |
| 2026-04-21 00:27 | 32.73070 | -117.18121 | 13 ft | 5 kts | 34° |
| 2026-04-21 00:28 | 32.73137 | -117.18128 | 13 ft | 13 kts | 321° |
| 2026-04-21 00:28 | 32.73160 | -117.18170 | 14 ft | 0 kts | 290° |
| 2026-04-21 00:28 | 32.73189 | -117.18279 | 16 ft | 49 kts | 287° |
| 2026-04-21 00:29 | 32.73360 | -117.18990 | 21 ft | 126 kts | 285° |
| 2026-04-21 00:29 | 32.73653 | -117.20173 | 330 ft | 158 kts | 288° |
| 2026-04-21 00:29 | 32.74052 | -117.21384 | 1220 ft | 159 kts | 301° |
| 2026-04-21 00:29 | 32.74802 | -117.22366 | 2035 ft | 158 kts | 304° |
| 2026-04-21 00:30 | 32.75350 | -117.23472 | 2724 ft | 161 kts | 298° |
| 2026-04-21 00:30 | 32.75981 | -117.24720 | 2967 ft | 189 kts | 301° |
| 2026-04-21 00:30 | 32.76735 | -117.26128 | 3179 ft | 215 kts | 301° |
| 2026-04-21 00:30 | 32.77600 | -117.27695 | 3448 ft | 236 kts | 302° |
| 2026-04-21 00:31 | 32.78542 | -117.29368 | 3789 ft | 255 kts | 302° |
| 2026-04-21 00:31 | 32.79563 | -117.31170 | 4295 ft | 269 kts | 303° |
| 2026-04-21 00:31 | 32.80654 | -117.32988 | 5132 ft | 272 kts | 306° |
| 2026-04-21 00:31 | 32.81821 | -117.34796 | 5904 ft | 278 kts | 306° |
| 2026-04-21 00:32 | 32.83016 | -117.36624 | 6669 ft | 282 kts | 306° |
| 2026-04-21 00:32 | 32.84222 | -117.38472 | 7428 ft | 285 kts | 306° |
| 2026-04-21 00:32 | 32.85439 | -117.40345 | 8208 ft | 288 kts | 306° |
| 2026-04-21 00:32 | 32.86667 | -117.42245 | 8971 ft | 292 kts | 306° |
| 2026-04-21 00:33 | 32.87910 | -117.44169 | 9733 ft | 295 kts | 305° |
| 2026-04-21 00:33 | 32.89171 | -117.46127 | 10373 ft | 303 kts | 305° |
| 2026-04-21 00:33 | 32.90503 | -117.48199 | 10543 ft | 327 kts | 304° |
| 2026-04-21 00:33 | 32.91902 | -117.50380 | 10864 ft | 343 kts | 305° |
| 2026-04-21 00:34 | 32.93367 | -117.52656 | 11484 ft | 347 kts | 305° |
| 2026-04-21 00:34 | 32.94854 | -117.54971 | 12242 ft | 348 kts | 304° |
| 2026-04-21 00:34 | 32.96312 | -117.57242 | 12958 ft | 351 kts | 304° |
| 2026-04-21 00:34 | 32.97803 | -117.59566 | 13650 ft | 354 kts | 304° |
| 2026-04-21 00:35 | 32.99299 | -117.61903 | 14268 ft | 357 kts | 304° |
| 2026-04-21 00:35 | 33.00814 | -117.64269 | 14846 ft | 361 kts | 303° |
| 2026-04-21 00:35 | 33.02344 | -117.66661 | 15410 ft | 365 kts | 303° |
| 2026-04-21 00:35 | 33.03895 | -117.69087 | 15988 ft | 369 kts | 303° |
| 2026-04-21 00:36 | 33.05455 | -117.71528 | 16555 ft | 373 kts | 303° |
| 2026-04-21 00:36 | 33.07128 | -117.73923 | 17110 ft | 380 kts | 311° |
| 2026-04-21 00:36 | 33.09149 | -117.76071 | 17676 ft | 387 kts | 316° |
| 2026-04-21 00:36 | 33.11256 | -117.78096 | 18219 ft | 391 kts | 317° |
| 2026-04-21 00:37 | 33.13385 | -117.80139 | 18696 ft | 395 kts | 316° |
| 2026-04-21 00:37 | 33.15478 | -117.82209 | 19192 ft | 397 kts | 316° |
| 2026-04-21 00:37 | 33.17593 | -117.84348 | 19715 ft | 399 kts | 315° |
| 2026-04-21 00:37 | 33.19698 | -117.86511 | 20237 ft | 401 kts | 314° |
| 2026-04-21 00:38 | 33.21732 | -117.88795 | 20756 ft | 402 kts | 311° |
| 2026-04-21 00:38 | 33.23717 | -117.91160 | 21255 ft | 404 kts | 310° |
| 2026-04-21 00:38 | 33.25692 | -117.93561 | 21748 ft | 407 kts | 310° |
| 2026-04-21 00:38 | 33.27684 | -117.95988 | 22239 ft | 410 kts | 310° |
| 2026-04-21 00:39 | 33.29693 | -117.98426 | 22732 ft | 413 kts | 310° |
| 2026-04-21 00:39 | 33.31719 | -118.00872 | 23204 ft | 416 kts | 310° |
| 2026-04-21 00:39 | 33.33761 | -118.03328 | 23673 ft | 419 kts | 310° |
| 2026-04-21 00:39 | 33.35826 | -118.05804 | 24078 ft | 421 kts | 310° |
| 2026-04-21 00:40 | 33.37897 | -118.08285 | 24539 ft | 422 kts | 310° |
| 2026-04-21 00:40 | 33.39977 | -118.10775 | 24979 ft | 424 kts | 310° |
| 2026-04-21 00:40 | 33.42067 | -118.13279 | 25406 ft | 426 kts | 310° |
| 2026-04-21 00:40 | 33.44166 | -118.15797 | 25801 ft | 428 kts | 310° |
| 2026-04-21 00:41 | 33.46275 | -118.18328 | 26196 ft | 431 kts | 310° |
| 2026-04-21 00:41 | 33.48396 | -118.20876 | 26587 ft | 433 kts | 311° |
| 2026-04-21 00:41 | 33.50529 | -118.23440 | 26980 ft | 435 kts | 311° |
| 2026-04-21 00:41 | 33.52670 | -118.26016 | 27356 ft | 437 kts | 311° |
| 2026-04-21 00:42 | 33.54799 | -118.28578 | 27727 ft | 439 kts | 311° |
| 2026-04-21 00:42 | 33.56256 | -118.30333 | 27986 ft | 441 kts | 311° |
| 2026-04-21 00:42 | 33.59125 | -118.33793 | 28474 ft | 443 kts | 311° |
| 2026-04-21 00:42 | 33.60599 | -118.35571 | 28718 ft | 445 kts | 311° |
| 2026-04-21 00:43 | 33.62785 | -118.38210 | 29105 ft | 446 kts | 311° |
| 2026-04-21 00:43 | 33.64972 | -118.40852 | 29494 ft | 448 kts | 311° |
| 2026-04-21 00:43 | 33.67171 | -118.43510 | 29852 ft | 450 kts | 311° |
| 2026-04-21 00:43 | 33.69383 | -118.46188 | 30168 ft | 452 kts | 311° |
| 2026-04-21 00:44 | 33.71601 | -118.48874 | 30435 ft | 454 kts | 311° |
| 2026-04-21 00:44 | 33.73806 | -118.51547 | 30691 ft | 456 kts | 310° |
| 2026-04-21 00:44 | 33.76046 | -118.54265 | 30916 ft | 459 kts | 310° |
| 2026-04-21 00:45 | 33.80534 | -118.59712 | 31661 ft | 457 kts | 310° |
| 2026-04-21 00:45 | 33.82762 | -118.62419 | 32052 ft | 455 kts | 310° |
| 2026-04-21 00:45 | 33.84986 | -118.65124 | 32366 ft | 455 kts | 309° |
| 2026-04-21 00:45 | 33.87216 | -118.67839 | 32673 ft | 456 kts | 309° |
| 2026-04-21 00:46 | 33.89450 | -118.70563 | 32992 ft | 456 kts | 309° |
| 2026-04-21 00:46 | 33.91670 | -118.73271 | 33313 ft | 455 kts | 309° |
| 2026-04-21 00:46 | 33.93900 | -118.75993 | 33589 ft | 456 kts | 309° |
| 2026-04-21 00:46 | 33.96127 | -118.78715 | 33852 ft | 456 kts | 309° |
| 2026-04-21 00:47 | 33.98350 | -118.81432 | 34145 ft | 456 kts | 309° |
| 2026-04-21 00:47 | 34.00568 | -118.84146 | 34419 ft | 455 kts | 309° |
| 2026-04-21 00:47 | 34.02793 | -118.86869 | 34687 ft | 454 kts | 309° |
| 2026-04-21 00:47 | 34.05005 | -118.89580 | 34939 ft | 454 kts | 308° |
| 2026-04-21 00:48 | 34.07214 | -118.92291 | 35196 ft | 453 kts | 308° |
| 2026-04-21 00:48 | 34.09427 | -118.95007 | 35446 ft | 453 kts | 308° |
| 2026-04-21 00:48 | 34.11630 | -118.97713 | 35769 ft | 451 kts | 308° |
| 2026-04-21 00:48 | 34.13818 | -119.00401 | 36053 ft | 449 kts | 308° |
| 2026-04-21 00:49 | 34.18272 | -119.05781 | 36051 ft | 453 kts | 309° |
| 2026-04-21 00:49 | 34.22754 | -119.11090 | 36052 ft | 450 kts | 309° |
| 2026-04-21 00:50 | 34.27210 | -119.16378 | 36050 ft | 448 kts | 309° |
| 2026-04-21 00:50 | 34.31638 | -119.21661 | 36045 ft | 446 kts | 308° |
| 2026-04-21 00:51 | 34.36048 | -119.26940 | 36061 ft | 445 kts | 308° |
| 2026-04-21 00:51 | 34.40444 | -119.32212 | 36052 ft | 445 kts | 308° |
| 2026-04-21 00:52 | 34.44836 | -119.37487 | 36061 ft | 445 kts | 308° |
| 2026-04-21 00:52 | 34.49214 | -119.42754 | 36035 ft | 446 kts | 308° |
| 2026-04-21 00:53 | 34.53616 | -119.48056 | 36029 ft | 447 kts | 308° |
| 2026-04-21 00:53 | 34.58029 | -119.53382 | 36028 ft | 448 kts | 308° |
| 2026-04-21 00:54 | 34.62458 | -119.58733 | 36021 ft | 450 kts | 308° |
| 2026-04-21 00:54 | 34.66892 | -119.64098 | 36009 ft | 450 kts | 308° |
| 2026-04-21 00:55 | 34.71332 | -119.69480 | 36000 ft | 450 kts | 308° |
| 2026-04-21 00:55 | 34.75762 | -119.74859 | 36016 ft | 451 kts | 308° |
| 2026-04-21 00:56 | 34.80197 | -119.80250 | 36007 ft | 451 kts | 308° |
| 2026-04-21 00:56 | 34.84626 | -119.85645 | 36011 ft | 450 kts | 308° |
| 2026-04-21 00:57 | 34.89024 | -119.91010 | 36004 ft | 450 kts | 308° |
| 2026-04-21 00:57 | 34.93468 | -119.96442 | 36006 ft | 449 kts | 308° |
| 2026-04-21 00:58 | 34.97873 | -120.01834 | 36003 ft | 448 kts | 308° |
| 2026-04-21 00:58 | 35.02236 | -120.07182 | 36003 ft | 447 kts | 307° |
| 2026-04-21 00:59 | 35.06600 | -120.12542 | 36016 ft | 444 kts | 308° |
| 2026-04-21 00:59 | 35.10952 | -120.17897 | 36015 ft | 444 kts | 308° |
| 2026-04-21 01:00 | 35.15306 | -120.23262 | 36021 ft | 444 kts | 308° |
| 2026-04-21 01:00 | 35.19926 | -120.28322 | 36038 ft | 451 kts | 316° |
| 2026-04-21 01:01 | 35.25006 | -120.32873 | 36033 ft | 454 kts | 317° |
| 2026-04-21 01:01 | 35.30112 | -120.37432 | 36050 ft | 454 kts | 316° |
| 2026-04-21 01:02 | 35.35175 | -120.42049 | 36037 ft | 454 kts | 317° |
| 2026-04-21 01:02 | 35.40234 | -120.46703 | 36026 ft | 455 kts | 316° |
| 2026-04-21 01:03 | 35.45294 | -120.51366 | 36038 ft | 455 kts | 316° |
| 2026-04-21 01:03 | 35.50336 | -120.56015 | 36044 ft | 456 kts | 316° |
| 2026-04-21 01:04 | 35.55463 | -120.60697 | 36035 ft | 457 kts | 317° |
| 2026-04-21 01:04 | 35.60601 | -120.65221 | 36035 ft | 457 kts | 318° |
| 2026-04-21 01:05 | 35.65776 | -120.69763 | 36041 ft | 457 kts | 318° |
| 2026-04-21 01:05 | 35.70948 | -120.74331 | 36037 ft | 457 kts | 317° |
| 2026-04-21 01:06 | 35.76113 | -120.78913 | 36033 ft | 457 kts | 317° |
| 2026-04-21 01:06 | 35.81275 | -120.83504 | 36040 ft | 457 kts | 317° |
| 2026-04-21 01:07 | 35.86429 | -120.88094 | 36021 ft | 457 kts | 317° |
| 2026-04-21 01:07 | 35.91591 | -120.92699 | 36026 ft | 457 kts | 317° |
| 2026-04-21 01:08 | 35.96754 | -120.97312 | 36029 ft | 458 kts | 317° |
| 2026-04-21 01:08 | 36.01889 | -121.01908 | 36014 ft | 459 kts | 317° |
| 2026-04-21 01:09 | 36.07089 | -121.06569 | 36009 ft | 459 kts | 317° |
| 2026-04-21 01:09 | 36.12257 | -121.11209 | 35995 ft | 459 kts | 317° |
| 2026-04-21 01:10 | 36.17394 | -121.15830 | 35988 ft | 459 kts | 317° |
| 2026-04-21 01:10 | 36.22559 | -121.20482 | 35987 ft | 459 kts | 317° |
| 2026-04-21 01:11 | 36.27733 | -121.25151 | 36004 ft | 460 kts | 317° |
| 2026-04-21 01:11 | 36.32911 | -121.29832 | 35975 ft | 460 kts | 317° |
| 2026-04-21 01:12 | 36.38085 | -121.34518 | 35966 ft | 460 kts | 317° |
| 2026-04-21 01:12 | 36.43267 | -121.39218 | 35966 ft | 460 kts | 317° |
| 2026-04-21 01:13 | 36.48407 | -121.43887 | 35977 ft | 460 kts | 317° |
| 2026-04-21 01:13 | 36.53580 | -121.48596 | 35972 ft | 461 kts | 317° |
| 2026-04-21 01:14 | 36.58761 | -121.53319 | 35940 ft | 462 kts | 316° |
| 2026-04-21 01:14 | 36.64007 | -121.57997 | 35921 ft | 468 kts | 323° |
| 2026-04-21 01:15 | 36.70136 | -121.61080 | 35928 ft | 485 kts | 343° |
| 2026-04-21 01:15 | 36.76851 | -121.62350 | 35930 ft | 490 kts | 348° |
| 2026-04-21 01:16 | 36.83638 | -121.63422 | 35957 ft | 491 kts | 348° |
| 2026-04-21 01:16 | 36.90429 | -121.64546 | 35956 ft | 492 kts | 347° |
| 2026-04-21 01:17 | 36.97225 | -121.65732 | 35962 ft | 493 kts | 347° |
| 2026-04-21 01:17 | 37.04012 | -121.66941 | 35979 ft | 493 kts | 347° |
| 2026-04-21 01:18 | 37.10807 | -121.68150 | 35959 ft | 494 kts | 347° |
| 2026-04-21 01:18 | 37.17575 | -121.69356 | 35954 ft | 494 kts | 347° |
| 2026-04-21 01:19 | 37.24374 | -121.70570 | 35981 ft | 494 kts | 347° |
| 2026-04-21 01:19 | 37.31192 | -121.71788 | 35960 ft | 494 kts | 347° |
| 2026-04-21 01:20 | 37.38002 | -121.73006 | 35967 ft | 494 kts | 347° |
| 2026-04-21 01:20 | 37.44811 | -121.74228 | 35973 ft | 494 kts | 347° |
| 2026-04-21 01:21 | 37.51630 | -121.75466 | 35956 ft | 495 kts | 347° |
| 2026-04-21 01:21 | 37.58454 | -121.76685 | 35939 ft | 495 kts | 347° |
| 2026-04-21 01:22 | 37.65234 | -121.77901 | 35954 ft | 495 kts | 347° |
| 2026-04-21 01:22 | 37.72059 | -121.79134 | 35954 ft | 496 kts | 347° |
| 2026-04-21 01:23 | 37.78906 | -121.80380 | 35943 ft | 499 kts | 347° |
| 2026-04-21 01:23 | 37.85800 | -121.81631 | 35949 ft | 501 kts | 347° |
| 2026-04-21 01:24 | 37.92721 | -121.82884 | 35929 ft | 504 kts | 347° |
| 2026-04-21 01:24 | 37.99671 | -121.84146 | 35935 ft | 505 kts | 347° |
| 2026-04-21 01:25 | 38.06633 | -121.85415 | 35946 ft | 506 kts | 347° |
| 2026-04-21 01:25 | 38.13610 | -121.86689 | 35945 ft | 506 kts | 347° |
| 2026-04-21 01:26 | 38.20545 | -121.87958 | 35918 ft | 506 kts | 347° |
| 2026-04-21 01:26 | 38.27521 | -121.89237 | 35921 ft | 506 kts | 347° |
| 2026-04-21 01:27 | 38.34498 | -121.90519 | 35917 ft | 506 kts | 347° |
| 2026-04-21 01:27 | 38.41470 | -121.91802 | 35927 ft | 505 kts | 347° |
| 2026-04-21 01:28 | 38.47250 | -121.92868 | 35923 ft | 505 kts | 347° |
| 2026-04-21 01:28 | 38.54202 | -121.94152 | 35931 ft | 504 kts | 347° |
| 2026-04-21 01:29 | 38.61141 | -121.95437 | 35944 ft | 504 kts | 347° |
| 2026-04-21 01:29 | 38.68082 | -121.96725 | 35947 ft | 503 kts | 347° |
| 2026-04-21 01:30 | 38.75012 | -121.98012 | 35954 ft | 503 kts | 347° |
| 2026-04-21 01:30 | 38.81955 | -121.99306 | 35958 ft | 503 kts | 348° |
| 2026-04-21 01:31 | 38.88888 | -122.00599 | 35957 ft | 504 kts | 348° |
| 2026-04-21 01:31 | 38.95821 | -122.01895 | 35965 ft | 504 kts | 348° |
| 2026-04-21 01:32 | 39.02722 | -122.03188 | 35961 ft | 504 kts | 348° |
| 2026-04-21 01:32 | 39.09672 | -122.04492 | 35967 ft | 504 kts | 348° |
| 2026-04-21 01:33 | 39.16622 | -122.05800 | 35967 ft | 505 kts | 348° |
| 2026-04-21 01:33 | 39.23578 | -122.07110 | 35975 ft | 505 kts | 348° |
| 2026-04-21 01:34 | 39.30547 | -122.08425 | 35977 ft | 507 kts | 348° |
| 2026-04-21 01:34 | 39.37556 | -122.09753 | 35971 ft | 509 kts | 348° |
| 2026-04-21 01:35 | 39.44584 | -122.11086 | 35977 ft | 511 kts | 348° |
| 2026-04-21 01:35 | 39.51639 | -122.12426 | 35990 ft | 513 kts | 348° |
| 2026-04-21 01:36 | 39.58685 | -122.13767 | 35986 ft | 515 kts | 348° |
| 2026-04-21 01:36 | 39.65788 | -122.15121 | 35981 ft | 516 kts | 348° |
| 2026-04-21 01:37 | 39.72907 | -122.16482 | 35985 ft | 517 kts | 348° |
| 2026-04-21 01:37 | 39.80026 | -122.17845 | 35981 ft | 517 kts | 348° |
| 2026-04-21 01:38 | 39.87154 | -122.19213 | 35987 ft | 516 kts | 348° |
| 2026-04-21 01:38 | 39.94256 | -122.20580 | 35978 ft | 516 kts | 348° |
| 2026-04-21 01:39 | 40.01349 | -122.21947 | 35982 ft | 514 kts | 348° |
| 2026-04-21 01:39 | 40.08431 | -122.23194 | 35981 ft | 515 kts | 355° |
| 2026-04-21 01:40 | 40.15562 | -122.22480 | 35998 ft | 515 kts | 11° |
| 2026-04-21 01:40 | 40.22600 | -122.20690 | 35992 ft | 514 kts | 12° |
| 2026-04-21 01:41 | 40.29622 | -122.18889 | 35989 ft | 514 kts | 11° |
| 2026-04-21 01:41 | 40.36667 | -122.17152 | 35926 ft | 514 kts | 11° |
| 2026-04-21 01:42 | 40.43677 | -122.15459 | 35970 ft | 512 kts | 11° |
| 2026-04-21 01:42 | 40.50698 | -122.13764 | 35985 ft | 512 kts | 11° |
| 2026-04-21 01:43 | 40.57700 | -122.12067 | 35981 ft | 511 kts | 11° |
| 2026-04-21 01:43 | 40.64662 | -122.10374 | 35982 ft | 509 kts | 12° |
| 2026-04-21 01:44 | 40.71634 | -122.08672 | 35993 ft | 509 kts | 12° |
| 2026-04-21 01:44 | 40.78609 | -122.06967 | 35974 ft | 509 kts | 12° |
| 2026-04-21 01:45 | 40.85563 | -122.05264 | 36035 ft | 508 kts | 12° |
| 2026-04-21 01:45 | 40.92514 | -122.03557 | 36013 ft | 508 kts | 12° |
| 2026-04-21 01:46 | 40.99475 | -122.01846 | 36020 ft | 508 kts | 12° |
| 2026-04-21 01:46 | 41.06447 | -122.00127 | 36025 ft | 509 kts | 12° |
| 2026-04-21 01:47 | 41.13391 | -121.98411 | 35997 ft | 512 kts | 12° |
| 2026-04-21 01:47 | 41.20397 | -121.96678 | 36000 ft | 512 kts | 12° |
| 2026-04-21 01:48 | 41.27406 | -121.94938 | 36022 ft | 513 kts | 12° |
| 2026-04-21 01:48 | 41.34444 | -121.93188 | 36010 ft | 514 kts | 12° |
| 2026-04-21 01:49 | 41.41485 | -121.91434 | 35980 ft | 515 kts | 11° |
| 2026-04-21 01:49 | 41.48517 | -121.89677 | 35995 ft | 514 kts | 11° |
| 2026-04-21 01:50 | 41.55544 | -121.87920 | 36003 ft | 512 kts | 11° |
| 2026-04-21 01:50 | 41.62541 | -121.86164 | 35969 ft | 510 kts | 12° |
| 2026-04-21 01:51 | 41.69464 | -121.84423 | 35975 ft | 509 kts | 12° |
| 2026-04-21 01:51 | 41.76429 | -121.82668 | 35967 ft | 509 kts | 12° |
| 2026-04-21 01:52 | 41.86868 | -121.80030 | 35951 ft | 509 kts | 12° |
| 2026-04-21 01:53 | 41.93844 | -121.78263 | 35948 ft | 510 kts | 12° |
| 2026-04-21 01:53 | 42.00818 | -121.76491 | 35964 ft | 510 kts | 12° |
| 2026-04-21 01:54 | 42.07806 | -121.74713 | 35970 ft | 512 kts | 12° |
| 2026-04-21 01:54 | 42.14847 | -121.73247 | 35952 ft | 513 kts | 1° |
| 2026-04-21 01:55 | 42.21888 | -121.74051 | 35910 ft | 510 kts | 347° |
| 2026-04-21 01:55 | 42.28874 | -121.75748 | 35918 ft | 511 kts | 347° |
| 2026-04-21 01:56 | 42.35890 | -121.77447 | 35932 ft | 512 kts | 347° |
| 2026-04-21 01:56 | 42.42923 | -121.79084 | 35925 ft | 513 kts | 348° |
| 2026-04-21 01:57 | 42.49957 | -121.80689 | 35912 ft | 512 kts | 348° |
| 2026-04-21 01:57 | 42.56984 | -121.82291 | 35919 ft | 512 kts | 348° |
| 2026-04-21 01:58 | 42.64016 | -121.83901 | 35892 ft | 510 kts | 347° |
| 2026-04-21 01:58 | 42.71013 | -121.85510 | 35904 ft | 510 kts | 347° |
| 2026-04-21 01:59 | 42.77984 | -121.87118 | 35911 ft | 510 kts | 347° |
| 2026-04-21 01:59 | 42.84991 | -121.88738 | 35905 ft | 511 kts | 347° |
| 2026-04-21 02:00 | 42.92004 | -121.90362 | 35915 ft | 511 kts | 348° |
| 2026-04-21 02:00 | 42.99009 | -121.91988 | 35907 ft | 511 kts | 347° |
| 2026-04-21 02:01 | 43.06016 | -121.93618 | 35884 ft | 510 kts | 347° |
| 2026-04-21 02:01 | 43.13007 | -121.95248 | 35900 ft | 510 kts | 347° |
| 2026-04-21 02:02 | 43.19958 | -121.96873 | 35883 ft | 510 kts | 347° |
| 2026-04-21 02:02 | 43.26943 | -121.98510 | 35875 ft | 509 kts | 348° |
| 2026-04-21 02:03 | 43.33910 | -122.00145 | 35883 ft | 507 kts | 347° |
| 2026-04-21 02:03 | 43.40870 | -122.01784 | 35869 ft | 507 kts | 347° |
| 2026-04-21 02:04 | 43.47829 | -122.03428 | 35870 ft | 505 kts | 347° |
| 2026-04-21 02:04 | 43.54761 | -122.05066 | 35860 ft | 506 kts | 347° |
| 2026-04-21 02:05 | 43.61691 | -122.06708 | 35867 ft | 505 kts | 347° |
| 2026-04-21 02:05 | 43.68632 | -122.08359 | 35852 ft | 506 kts | 347° |
| 2026-04-21 02:06 | 43.75574 | -122.10012 | 35845 ft | 507 kts | 347° |
| 2026-04-21 02:06 | 43.82486 | -122.11662 | 35855 ft | 507 kts | 347° |
| 2026-04-21 02:07 | 43.89446 | -122.13320 | 35876 ft | 506 kts | 347° |
| 2026-04-21 02:07 | 43.96400 | -122.14992 | 35867 ft | 506 kts | 347° |
| 2026-04-21 02:08 | 44.03351 | -122.16665 | 35871 ft | 507 kts | 347° |
| 2026-04-21 02:08 | 44.10307 | -122.18342 | 35877 ft | 508 kts | 347° |
| 2026-04-21 02:09 | 44.17241 | -122.20018 | 35880 ft | 508 kts | 347° |
| 2026-04-21 02:09 | 44.24212 | -122.21706 | 35860 ft | 508 kts | 347° |
| 2026-04-21 02:10 | 44.31185 | -122.23401 | 35882 ft | 509 kts | 346° |
| 2026-04-21 02:10 | 44.38169 | -122.25100 | 35887 ft | 508 kts | 346° |
| 2026-04-21 02:11 | 44.45127 | -122.26805 | 35878 ft | 508 kts | 346° |
| 2026-04-21 02:11 | 44.52049 | -122.28490 | 35903 ft | 507 kts | 346° |
| 2026-04-21 02:12 | 44.59013 | -122.30193 | 35871 ft | 507 kts | 346° |
| 2026-04-21 02:12 | 44.65955 | -122.31894 | 35884 ft | 506 kts | 346° |
| 2026-04-21 02:13 | 44.72904 | -122.33607 | 35864 ft | 506 kts | 346° |
| 2026-04-21 02:13 | 44.79819 | -122.35319 | 35895 ft | 504 kts | 346° |
| 2026-04-21 02:14 | 44.86737 | -122.37030 | 35892 ft | 504 kts | 346° |
| 2026-04-21 02:14 | 44.92470 | -122.38452 | 35891 ft | 503 kts | 346° |
| 2026-04-21 02:15 | 45.00497 | -122.40446 | 35911 ft | 503 kts | 346° |
| 2026-04-21 02:15 | 45.07389 | -122.42166 | 35901 ft | 502 kts | 346° |
| 2026-04-21 02:16 | 45.13135 | -122.43601 | 35766 ft | 499 kts | 346° |
| 2026-04-21 02:16 | 45.17656 | -122.44732 | 35175 ft | 496 kts | 346° |
| 2026-04-21 02:16 | 45.19948 | -122.45305 | 34859 ft | 494 kts | 345° |
| 2026-04-21 02:16 | 45.23275 | -122.46138 | 34420 ft | 490 kts | 345° |
| 2026-04-21 02:17 | 45.26621 | -122.46978 | 33957 ft | 487 kts | 345° |
| 2026-04-21 02:17 | 45.29957 | -122.47817 | 33449 ft | 484 kts | 345° |
| 2026-04-21 02:17 | 45.33264 | -122.48649 | 32959 ft | 481 kts | 345° |
| 2026-04-21 02:17 | 45.36546 | -122.49477 | 32489 ft | 478 kts | 345° |
| 2026-04-21 02:18 | 45.39813 | -122.50304 | 32024 ft | 475 kts | 345° |
| 2026-04-21 02:18 | 45.43061 | -122.51124 | 31562 ft | 473 kts | 345° |
| 2026-04-21 02:18 | 45.46295 | -122.51942 | 31112 ft | 470 kts | 345° |
| 2026-04-21 02:18 | 45.49503 | -122.52754 | 30674 ft | 467 kts | 345° |
| 2026-04-21 02:19 | 45.52699 | -122.53565 | 30247 ft | 465 kts | 345° |
| 2026-04-21 02:19 | 45.55880 | -122.54373 | 29760 ft | 463 kts | 345° |
| 2026-04-21 02:19 | 45.59049 | -122.55179 | 29281 ft | 460 kts | 345° |
| 2026-04-21 02:19 | 45.62185 | -122.55978 | 28817 ft | 457 kts | 345° |
| 2026-04-21 02:20 | 45.65308 | -122.56774 | 28373 ft | 454 kts | 345° |
| 2026-04-21 02:20 | 45.68363 | -122.57553 | 27932 ft | 450 kts | 346° |
| 2026-04-21 02:20 | 45.71439 | -122.58338 | 27502 ft | 447 kts | 346° |
| 2026-04-21 02:20 | 45.74492 | -122.59110 | 27080 ft | 444 kts | 347° |
| 2026-04-21 02:21 | 45.77545 | -122.59577 | 26805 ft | 438 kts | 354° |
| 2026-04-21 02:21 | 45.80583 | -122.59808 | 26401 ft | 436 kts | 356° |
| 2026-04-21 02:21 | 45.83605 | -122.59967 | 25997 ft | 433 kts | 356° |
| 2026-04-21 02:21 | 45.86611 | -122.60113 | 25585 ft | 430 kts | 356° |
| 2026-04-21 02:22 | 45.89590 | -122.60269 | 25162 ft | 428 kts | 356° |
| 2026-04-21 02:22 | 45.92561 | -122.60442 | 24747 ft | 426 kts | 356° |
| 2026-04-21 02:22 | 45.95519 | -122.60628 | 24323 ft | 425 kts | 357° |
| 2026-04-21 02:22 | 45.98467 | -122.60824 | 23889 ft | 424 kts | 357° |
| 2026-04-21 02:23 | 46.01413 | -122.61025 | 23482 ft | 421 kts | 358° |
| 2026-04-21 02:23 | 46.04330 | -122.61225 | 22960 ft | 419 kts | 357° |
| 2026-04-21 02:23 | 46.07226 | -122.61426 | 22540 ft | 414 kts | 357° |
| 2026-04-21 02:23 | 46.10100 | -122.61627 | 22123 ft | 411 kts | 357° |
| 2026-04-21 02:24 | 46.12948 | -122.61825 | 21714 ft | 408 kts | 357° |
| 2026-04-21 02:24 | 46.15773 | -122.62022 | 21299 ft | 405 kts | 357° |
| 2026-04-21 02:24 | 46.18580 | -122.62218 | 20893 ft | 403 kts | 357° |
| 2026-04-21 02:24 | 46.21368 | -122.62411 | 20477 ft | 400 kts | 356° |
| 2026-04-21 02:25 | 46.24100 | -122.62600 | 20071 ft | 397 kts | 356° |
| 2026-04-21 02:25 | 46.26844 | -122.62791 | 19700 ft | 393 kts | 356° |
| 2026-04-21 02:25 | 46.29566 | -122.62983 | 19301 ft | 391 kts | 356° |
| 2026-04-21 02:25 | 46.32283 | -122.63173 | 18916 ft | 389 kts | 356° |
| 2026-04-21 02:26 | 46.34986 | -122.63356 | 18486 ft | 388 kts | 356° |
| 2026-04-21 02:26 | 46.37663 | -122.63542 | 18091 ft | 385 kts | 356° |
| 2026-04-21 02:26 | 46.40335 | -122.63730 | 17640 ft | 384 kts | 356° |
| 2026-04-21 02:26 | 46.42997 | -122.63921 | 17224 ft | 381 kts | 356° |
| 2026-04-21 02:27 | 46.45631 | -122.64107 | 16838 ft | 377 kts | 356° |
| 2026-04-21 02:27 | 46.48237 | -122.64290 | 16455 ft | 374 kts | 356° |
| 2026-04-21 02:27 | 46.50833 | -122.64471 | 16056 ft | 371 kts | 356° |
| 2026-04-21 02:27 | 46.53401 | -122.64651 | 15700 ft | 368 kts | 356° |
| 2026-04-21 02:28 | 46.55948 | -122.64831 | 15325 ft | 365 kts | 356° |
| 2026-04-21 02:28 | 46.58482 | -122.65010 | 14948 ft | 363 kts | 356° |
| 2026-04-21 02:28 | 46.60994 | -122.65188 | 14582 ft | 360 kts | 356° |
| 2026-04-21 02:28 | 46.63489 | -122.65364 | 14217 ft | 358 kts | 356° |
| 2026-04-21 02:29 | 46.65977 | -122.65540 | 13842 ft | 356 kts | 356° |
| 2026-04-21 02:29 | 46.68417 | -122.65713 | 13455 ft | 354 kts | 355° |
| 2026-04-21 02:29 | 46.70873 | -122.65887 | 13063 ft | 352 kts | 356° |
| 2026-04-21 02:29 | 46.73302 | -122.66060 | 12793 ft | 346 kts | 356° |
| 2026-04-21 02:30 | 46.75685 | -122.66228 | 12412 ft | 340 kts | 356° |
| 2026-04-21 02:30 | 46.78019 | -122.66394 | 12095 ft | 330 kts | 357° |
| 2026-04-21 02:30 | 46.80304 | -122.66557 | 11777 ft | 327 kts | 357° |
| 2026-04-21 02:30 | 46.82574 | -122.66689 | 11406 ft | 325 kts | 2° |
| 2026-04-21 02:31 | 46.84738 | -122.65938 | 11100 ft | 316 kts | 29° |
| 2026-04-21 02:31 | 46.86505 | -122.64119 | 10767 ft | 309 kts | 46° |
| 2026-04-21 02:31 | 46.88046 | -122.61961 | 10436 ft | 307 kts | 47° |
| 2026-04-21 02:31 | 46.89579 | -122.59802 | 10106 ft | 305 kts | 47° |
| 2026-04-21 02:32 | 46.91092 | -122.57679 | 9929 ft | 298 kts | 49° |
| 2026-04-21 02:32 | 46.92535 | -122.55522 | 9594 ft | 296 kts | 50° |
| 2026-04-21 02:32 | 46.93950 | -122.53364 | 9282 ft | 293 kts | 50° |
| 2026-04-21 02:32 | 46.95346 | -122.51242 | 8975 ft | 291 kts | 49° |
| 2026-04-21 02:33 | 46.96760 | -122.49102 | 8668 ft | 289 kts | 49° |
| 2026-04-21 02:33 | 46.98166 | -122.47004 | 8373 ft | 287 kts | 45° |
| 2026-04-21 02:33 | 46.99783 | -122.45360 | 8083 ft | 287 kts | 31° |
| 2026-04-21 02:33 | 47.01523 | -122.43961 | 7794 ft | 284 kts | 30° |
| 2026-04-21 02:34 | 47.03248 | -122.42566 | 7505 ft | 282 kts | 31° |
| 2026-04-21 02:34 | 47.04962 | -122.41156 | 7254 ft | 281 kts | 31° |
| 2026-04-21 02:34 | 47.06650 | -122.39747 | 6972 ft | 279 kts | 31° |
| 2026-04-21 02:34 | 47.08329 | -122.38332 | 6693 ft | 278 kts | 31° |
| 2026-04-21 02:35 | 47.10002 | -122.36916 | 6416 ft | 277 kts | 30° |
| 2026-04-21 02:35 | 47.11665 | -122.35507 | 6103 ft | 275 kts | 29° |
| 2026-04-21 02:35 | 47.13436 | -122.34519 | 5772 ft | 270 kts | 8° |
| 2026-04-21 02:35 | 47.15276 | -122.34155 | 5522 ft | 265 kts | 7° |
| 2026-04-21 02:36 | 47.17091 | -122.33789 | 5236 ft | 264 kts | 7° |
| 2026-04-21 02:36 | 47.18907 | -122.33400 | 4962 ft | 262 kts | 7° |
| 2026-04-21 02:36 | 47.20714 | -122.32999 | 4679 ft | 261 kts | 8° |
| 2026-04-21 02:36 | 47.22503 | -122.32596 | 4400 ft | 260 kts | 8° |
| 2026-04-21 02:37 | 47.24281 | -122.32193 | 4149 ft | 255 kts | 8° |
| 2026-04-21 02:37 | 47.26000 | -122.31949 | 3841 ft | 244 kts | 1° |
| 2026-04-21 02:37 | 47.27640 | -122.31920 | 3535 ft | 227 kts | 359° |
| 2026-04-21 02:37 | 47.29159 | -122.31923 | 3262 ft | 210 kts | 359° |
| 2026-04-21 02:38 | 47.30568 | -122.31914 | 3006 ft | 199 kts | 359° |
| 2026-04-21 02:38 | 47.31922 | -122.31906 | 2744 ft | 189 kts | 359° |
| 2026-04-21 02:38 | 47.33195 | -122.31895 | 2494 ft | 178 kts | 358° |
| 2026-04-21 02:38 | 47.34383 | -122.31884 | 2281 ft | 164 kts | 357° |
| 2026-04-21 02:39 | 47.35503 | -122.31876 | 2074 ft | 161 kts | 358° |
| 2026-04-21 02:39 | 47.36632 | -122.31868 | 1847 ft | 161 kts | 357° |
| 2026-04-21 02:39 | 47.37731 | -122.31858 | 1622 ft | 157 kts | 358° |
| 2026-04-21 02:39 | 47.38809 | -122.31849 | 1429 ft | 155 kts | 357° |
| 2026-04-21 02:40 | 47.39885 | -122.31841 | 1258 ft | 154 kts | 358° |
| 2026-04-21 02:40 | 47.40965 | -122.31832 | 1002 ft | 153 kts | 359° |
| 2026-04-21 02:40 | 47.42021 | -122.31824 | 797 ft | 153 kts | 358° |
| 2026-04-21 02:40 | 47.43089 | -122.31808 | 612 ft | 155 kts | 1° |
| 2026-04-21 02:41 | 47.44163 | -122.31809 | 424 ft | 154 kts | 358° |
| 2026-04-21 02:41 | 47.44603 | -122.31810 | 381 ft | 195 kts | 359° |
| 2026-04-21 02:41 | 47.45062 | -122.31814 | 392 ft | 25 kts | 2° |
| 2026-04-21 02:41 | 47.45228 | -122.31781 | 395 ft | 23 kts | 11° |
| 2026-04-21 02:42 | 47.45376 | -122.31711 | 398 ft | 21 kts | 28° |
| 2026-04-21 02:42 | 47.45470 | -122.31580 | 403 ft | 17 kts | 58° |
| 2026-04-21 02:42 | 47.45506 | -122.31442 | 409 ft | 12 kts | 87° |
| 2026-04-21 02:42 | 47.45509 | -122.31346 | 413 ft | 7 kts | 88° |
| 2026-04-21 02:43 | 47.45508 | -122.31252 | 414 ft | 15 kts | 92° |
| 2026-04-21 02:43 | 47.45503 | -122.31082 | 411 ft | 16 kts | 92° |
| 2026-04-21 02:43 | 47.45482 | -122.30925 | 416 ft | 14 kts | 132° |
| 2026-04-21 02:43 | 47.45406 | -122.30856 | 417 ft | 12 kts | 147° |
| 2026-04-21 02:44 | 47.45337 | -122.30799 | 419 ft | 11 kts | 153° |
| 2026-04-21 02:44 | 47.45209 | -122.30670 | 414 ft | 28 kts | 142° |
| 2026-04-21 02:44 | 47.45028 | -122.30625 | 412 ft | 27 kts | 182° |
| 2026-04-21 02:44 | 47.44837 | -122.30620 | 405 ft | 27 kts | 155° |
| 2026-04-21 02:45 | 47.44854 | -122.30421 | 408 ft | 13 kts | 44° |
| 2026-04-21 02:45 | 47.44863 | -122.30407 | 407 ft | 0 kts | 43° |